sensor_id;sensor_type;location;lat;lon;timestamp;temperature;humidity
79760;DHT22;70512;42.122;24.732;2024-03-23T00:52:27;6.80;73.60
79760;DHT22;70512;42.122;24.732;2024-03-23T00:54:55;6.70;74.10
79760;DHT22;70512;42.122;24.732;2024-03-23T00:57:23;6.60;75.00
79760;DHT22;70512;42.122;24.732;2024-03-23T00:59:50;6.60;76.50
79760;DHT22;70512;42.122;24.732;2024-03-23T01:02:18;6.50;76.20
79760;DHT22;70512;42.122;24.732;2024-03-23T01:04:45;6.50;76.30
79760;DHT22;70512;42.122;24.732;2024-03-23T01:07:13;6.50;76.40
79760;DHT22;70512;42.122;24.732;2024-03-23T01:09:41;6.50;76.70
79760;DHT22;70512;42.122;24.732;2024-03-23T01:12:08;6.60;77.10
79760;DHT22;70512;42.122;24.732;2024-03-23T01:14:36;6.50;76.90
79760;DHT22;70512;42.122;24.732;2024-03-23T01:17:04;6.40;76.90
79760;DHT22;70512;42.122;24.732;2024-03-23T01:19:31;6.40;77.00
79760;DHT22;70512;42.122;24.732;2024-03-23T01:21:59;6.40;76.80
79760;DHT22;70512;42.122;24.732;2024-03-23T01:24:28;6.40;77.10
79760;DHT22;70512;42.122;24.732;2024-03-23T01:26:56;6.30;77.50
79760;DHT22;70512;42.122;24.732;2024-03-23T01:29:24;6.40;77.70
79760;DHT22;70512;42.122;24.732;2024-03-23T01:31:52;6.30;78.80
79760;DHT22;70512;42.122;24.732;2024-03-23T01:34:19;6.40;78.60
79760;DHT22;70512;42.122;24.732;2024-03-23T01:36:47;6.40;78.10
79760;DHT22;70512;42.122;24.732;2024-03-23T01:39:15;6.50;77.90
79760;DHT22;70512;42.122;24.732;2024-03-23T01:41:43;6.40;77.60
79760;DHT22;70512;42.122;24.732;2024-03-23T01:44:11;6.50;77.50
79760;DHT22;70512;42.122;24.732;2024-03-23T01:46:39;6.60;77.10
79760;DHT22;70512;42.122;24.732;2024-03-23T01:49:08;6.50;77.70
79760;DHT22;70512;42.122;24.732;2024-03-23T01:51:37;6.50;77.70
79760;DHT22;70512;42.122;24.732;2024-03-23T01:54:04;6.50;77.90
79760;DHT22;70512;42.122;24.732;2024-03-23T01:56:34;6.50;78.40
79760;DHT22;70512;42.122;24.732;2024-03-23T01:59:04;6.40;79.00
79760;DHT22;70512;42.122;24.732;2024-03-23T02:01:34;6.40;79.70
79760;DHT22;70512;42.122;24.732;2024-03-23T02:04:04;6.30;80.60
79760;DHT22;70512;42.122;24.732;2024-03-23T02:06:32;6.20;81.00
79760;DHT22;70512;42.122;24.732;2024-03-23T02:09:00;6.10;81.20
79760;DHT22;70512;42.122;24.732;2024-03-23T02:11:27;6.10;81.50
79760;DHT22;70512;42.122;24.732;2024-03-23T02:13:55;6.10;81.50
79760;DHT22;70512;42.122;24.732;2024-03-23T02:16:23;6.10;81.50
79760;DHT22;70512;42.122;24.732;2024-03-23T02:18:50;6.10;81.40
79760;DHT22;70512;42.122;24.732;2024-03-23T02:21:18;6.10;81.50
79760;DHT22;70512;42.122;24.732;2024-03-23T02:23:46;6.00;81.30
79760;DHT22;70512;42.122;24.732;2024-03-23T02:26:13;6.00;81.50
79760;DHT22;70512;42.122;24.732;2024-03-23T02:28:42;6.00;81.60
79760;DHT22;70512;42.122;24.732;2024-03-23T02:31:09;6.00;82.50
79760;DHT22;70512;42.122;24.732;2024-03-23T02:33:38;6.00;82.00
79760;DHT22;70512;42.122;24.732;2024-03-23T02:36:06;6.00;81.90
79760;DHT22;70512;42.122;24.732;2024-03-23T02:38:33;6.00;82.00
79760;DHT22;70512;42.122;24.732;2024-03-23T02:41:04;6.00;81.80
79760;DHT22;70512;42.122;24.732;2024-03-23T02:43:32;5.90;82.20
79760;DHT22;70512;42.122;24.732;2024-03-23T02:46:00;5.90;82.30
79760;DHT22;70512;42.122;24.732;2024-03-23T02:48:27;5.90;82.30
79760;DHT22;70512;42.122;24.732;2024-03-23T02:50:55;5.90;82.00
79760;DHT22;70512;42.122;24.732;2024-03-23T02:53:23;5.80;81.90
79760;DHT22;70512;42.122;24.732;2024-03-23T02:55:50;5.80;81.80
79760;DHT22;70512;42.122;24.732;2024-03-23T02:58:18;5.70;81.70
79760;DHT22;70512;42.122;24.732;2024-03-23T03:00:46;5.60;81.70
79760;DHT22;70512;42.122;24.732;2024-03-23T03:03:13;5.50;82.50
79760;DHT22;70512;42.122;24.732;2024-03-23T03:05:41;5.60;82.50
79760;DHT22;70512;42.122;24.732;2024-03-23T03:08:09;5.60;82.20
79760;DHT22;70512;42.122;24.732;2024-03-23T03:10:36;5.60;82.40
79760;DHT22;70512;42.122;24.732;2024-03-23T03:13:04;5.60;82.60
79760;DHT22;70512;42.122;24.732;2024-03-23T03:15:32;5.60;82.50
79760;DHT22;70512;42.122;24.732;2024-03-23T03:18:02;5.50;82.80
79760;DHT22;70512;42.122;24.732;2024-03-23T03:20:30;5.50;83.00
79760;DHT22;70512;42.122;24.732;2024-03-23T03:22:58;5.60;82.70
79760;DHT22;70512;42.122;24.732;2024-03-23T03:25:26;5.50;82.60
79760;DHT22;70512;42.122;24.732;2024-03-23T03:27:53;5.50;82.60
79760;DHT22;70512;42.122;24.732;2024-03-23T03:30:21;5.50;82.60
79760;DHT22;70512;42.122;24.732;2024-03-23T03:32:50;5.50;83.00
79760;DHT22;70512;42.122;24.732;2024-03-23T03:35:18;5.50;82.60
79760;DHT22;70512;42.122;24.732;2024-03-23T03:37:46;5.50;82.60
79760;DHT22;70512;42.122;24.732;2024-03-23T03:40:13;5.40;83.10
79760;DHT22;70512;42.122;24.732;2024-03-23T03:42:42;5.50;82.80
79760;DHT22;70512;42.122;24.732;2024-03-23T03:45:11;5.40;82.30
79760;DHT22;70512;42.122;24.732;2024-03-23T03:47:38;5.30;81.90
79760;DHT22;70512;42.122;24.732;2024-03-23T03:50:06;5.30;82.00
79760;DHT22;70512;42.122;24.732;2024-03-23T03:52:34;5.30;81.80
79760;DHT22;70512;42.122;24.732;2024-03-23T03:55:02;5.20;81.60
79760;DHT22;70512;42.122;24.732;2024-03-23T03:57:30;5.20;81.60
79760;DHT22;70512;42.122;24.732;2024-03-23T03:59:58;5.20;81.50
79760;DHT22;70512;42.122;24.732;2024-03-23T04:02:25;5.10;81.40
79760;DHT22;70512;42.122;24.732;2024-03-23T04:04:53;5.10;81.20
79760;DHT22;70512;42.122;24.732;2024-03-23T04:07:21;5.00;81.70
79760;DHT22;70512;42.122;24.732;2024-03-23T04:09:49;4.80;82.30
79760;DHT22;70512;42.122;24.732;2024-03-23T04:12:17;4.80;82.80
79760;DHT22;70512;42.122;24.732;2024-03-23T04:14:44;4.80;82.70
79760;DHT22;70512;42.122;24.732;2024-03-23T04:17:12;4.80;83.30
79760;DHT22;70512;42.122;24.732;2024-03-23T04:19:40;4.80;82.80
79760;DHT22;70512;42.122;24.732;2024-03-23T04:22:08;4.80;83.30
79760;DHT22;70512;42.122;24.732;2024-03-23T04:24:35;4.80;83.20
79760;DHT22;70512;42.122;24.732;2024-03-23T04:27:03;4.70;83.60
79760;DHT22;70512;42.122;24.732;2024-03-23T04:29:31;4.70;83.20
79760;DHT22;70512;42.122;24.732;2024-03-23T04:31:58;4.90;82.70
79760;DHT22;70512;42.122;24.732;2024-03-23T04:34:27;4.80;83.10
79760;DHT22;70512;42.122;24.732;2024-03-23T04:36:55;4.80;83.10
79760;DHT22;70512;42.122;24.732;2024-03-23T04:39:22;4.80;83.00
79760;DHT22;70512;42.122;24.732;2024-03-23T04:41:50;4.70;83.00
79760;DHT22;70512;42.122;24.732;2024-03-23T04:44:18;4.70;83.20
79760;DHT22;70512;42.122;24.732;2024-03-23T04:46:45;4.60;83.40
79760;DHT22;70512;42.122;24.732;2024-03-23T04:49:13;4.60;83.60
79760;DHT22;70512;42.122;24.732;2024-03-23T04:51:41;4.60;83.50
79760;DHT22;70512;42.122;24.732;2024-03-23T04:54:10;4.60;83.50
79760;DHT22;70512;42.122;24.732;2024-03-23T04:56:38;4.60;83.30
79760;DHT22;70512;42.122;24.732;2024-03-23T04:59:05;4.50;83.60
79760;DHT22;70512;42.122;24.732;2024-03-23T05:01:33;4.50;83.40
79760;DHT22;70512;42.122;24.732;2024-03-23T05:04:01;4.60;83.50
79760;DHT22;70512;42.122;24.732;2024-03-23T05:06:29;4.60;83.00
79760;DHT22;70512;42.122;24.732;2024-03-23T05:08:57;4.70;82.80
79760;DHT22;70512;42.122;24.732;2024-03-23T05:11:24;4.70;82.50
79760;DHT22;70512;42.122;24.732;2024-03-23T05:13:52;4.80;82.50
79760;DHT22;70512;42.122;24.732;2024-03-23T05:16:20;4.90;82.00
79760;DHT22;70512;42.122;24.732;2024-03-23T05:18:47;5.00;81.50
79760;DHT22;70512;42.122;24.732;2024-03-23T05:21:15;5.10;81.20
79760;DHT22;70512;42.122;24.732;2024-03-23T05:23:43;5.30;80.70
79760;DHT22;70512;42.122;24.732;2024-03-23T05:26:10;5.70;79.90
79760;DHT22;70512;42.122;24.732;2024-03-23T05:28:38;6.70;76.80
79760;DHT22;70512;42.122;24.732;2024-03-23T05:31:06;7.70;72.30
79760;DHT22;70512;42.122;24.732;2024-03-23T05:33:36;8.80;69.00
79760;DHT22;70512;42.122;24.732;2024-03-23T05:36:06;9.80;64.50
79760;DHT22;70512;42.122;24.732;2024-03-23T05:38:35;10.50;59.70
79760;DHT22;70512;42.122;24.732;2024-03-23T05:41:03;10.50;58.60
79760;DHT22;70512;42.122;24.732;2024-03-23T05:43:30;10.40;57.70
79760;DHT22;70512;42.122;24.732;2024-03-23T05:45:59;10.80;57.40
79760;DHT22;70512;42.122;24.732;2024-03-23T05:48:31;11.60;55.90
79760;DHT22;70512;42.122;24.732;2024-03-23T05:50:59;12.80;53.20
79760;DHT22;70512;42.122;24.732;2024-03-23T05:53:26;13.80;49.70
79760;DHT22;70512;42.122;24.732;2024-03-23T05:56:03;14.50;47.40
79760;DHT22;70512;42.122;24.732;2024-03-23T05:58:32;14.90;45.90
79760;DHT22;70512;42.122;24.732;2024-03-23T06:01:00;15.30;44.60
79760;DHT22;70512;42.122;24.732;2024-03-23T06:03:29;15.80;43.30
79760;DHT22;70512;42.122;24.732;2024-03-23T06:05:57;16.60;41.50
79760;DHT22;70512;42.122;24.732;2024-03-23T06:08:24;16.60;39.80
79760;DHT22;70512;42.122;24.732;2024-03-23T06:10:52;16.40;40.40
79760;DHT22;70512;42.122;24.732;2024-03-23T06:13:20;17.20;39.60
79760;DHT22;70512;42.122;24.732;2024-03-23T06:15:50;18.20;37.40
79760;DHT22;70512;42.122;24.732;2024-03-23T06:18:17;18.20;36.40
79760;DHT22;70512;42.122;24.732;2024-03-23T06:20:45;18.10;36.10
79760;DHT22;70512;42.122;24.732;2024-03-23T06:23:13;18.20;36.10
79760;DHT22;70512;42.122;24.732;2024-03-23T06:25:42;18.60;35.60
79760;DHT22;70512;42.122;24.732;2024-03-23T06:28:11;19.30;34.10
79760;DHT22;70512;42.122;24.732;2024-03-23T06:30:38;19.60;33.70
79760;DHT22;70512;42.122;24.732;2024-03-23T06:33:06;20.30;31.80
79760;DHT22;70512;42.122;24.732;2024-03-23T06:35:34;21.00;30.80
79760;DHT22;70512;42.122;24.732;2024-03-23T06:38:01;21.10;30.10
79760;DHT22;70512;42.122;24.732;2024-03-23T06:40:29;21.40;30.10
79760;DHT22;70512;42.122;24.732;2024-03-23T06:42:57;22.00;29.00
79760;DHT22;70512;42.122;24.732;2024-03-23T06:45:25;22.00;28.80
79760;DHT22;70512;42.122;24.732;2024-03-23T06:47:52;21.60;29.00
79760;DHT22;70512;42.122;24.732;2024-03-23T06:50:22;22.00;29.20
79760;DHT22;70512;42.122;24.732;2024-03-23T06:52:50;22.90;27.90
79760;DHT22;70512;42.122;24.732;2024-03-23T06:55:18;23.00;27.40
79760;DHT22;70512;42.122;24.732;2024-03-23T06:57:45;23.30;26.70
79760;DHT22;70512;42.122;24.732;2024-03-23T07:00:14;23.90;26.50
79760;DHT22;70512;42.122;24.732;2024-03-23T07:02:43;24.40;25.90
79760;DHT22;70512;42.122;24.732;2024-03-23T07:05:29;24.80;24.90
79760;DHT22;70512;42.122;24.732;2024-03-23T07:07:57;25.10;24.80
79760;DHT22;70512;42.122;24.732;2024-03-23T07:10:24;25.40;24.40
79760;DHT22;70512;42.122;24.732;2024-03-23T07:12:52;24.70;25.00
79760;DHT22;70512;42.122;24.732;2024-03-23T07:15:20;25.30;24.60
79760;DHT22;70512;42.122;24.732;2024-03-23T07:17:50;26.20;23.70
79760;DHT22;70512;42.122;24.732;2024-03-23T07:20:18;26.80;22.90
79760;DHT22;70512;42.122;24.732;2024-03-23T07:22:46;26.70;22.90
79760;DHT22;70512;42.122;24.732;2024-03-23T07:25:15;26.70;22.90
79760;DHT22;70512;42.122;24.732;2024-03-23T07:27:43;26.70;22.80
79760;DHT22;70512;42.122;24.732;2024-03-23T07:30:11;26.80;23.20
79760;DHT22;70512;42.122;24.732;2024-03-23T07:32:39;26.70;22.60
79760;DHT22;70512;42.122;24.732;2024-03-23T07:35:07;27.50;22.10
79760;DHT22;70512;42.122;24.732;2024-03-23T07:37:34;28.20;21.90
79760;DHT22;70512;42.122;24.732;2024-03-23T07:40:02;28.90;21.20
79760;DHT22;70512;42.122;24.732;2024-03-23T07:42:30;28.70;21.00
79760;DHT22;70512;42.122;24.732;2024-03-23T07:44:57;28.70;20.90
79760;DHT22;70512;42.122;24.732;2024-03-23T07:47:25;28.10;21.10
79760;DHT22;70512;42.122;24.732;2024-03-23T07:49:53;28.00;21.00
79760;DHT22;70512;42.122;24.732;2024-03-23T07:52:21;28.90;20.90
79760;DHT22;70512;42.122;24.732;2024-03-23T07:54:48;29.30;20.20
79760;DHT22;70512;42.122;24.732;2024-03-23T07:57:35;29.60;20.10
79760;DHT22;70512;42.122;24.732;2024-03-23T08:00:03;30.00;19.60
79760;DHT22;70512;42.122;24.732;2024-03-23T08:02:33;30.20;19.60
79760;DHT22;70512;42.122;24.732;2024-03-23T08:05:01;29.90;19.50
79760;DHT22;70512;42.122;24.732;2024-03-23T08:07:28;30.50;19.50
79760;DHT22;70512;42.122;24.732;2024-03-23T08:09:56;30.50;19.20
79760;DHT22;70512;42.122;24.732;2024-03-23T08:12:26;30.70;19.20
79760;DHT22;70512;42.122;24.732;2024-03-23T08:14:53;31.00;18.90
79760;DHT22;70512;42.122;24.732;2024-03-23T08:17:21;30.00;19.50
79760;DHT22;70512;42.122;24.732;2024-03-23T08:19:49;29.70;19.40
79760;DHT22;70512;42.122;24.732;2024-03-23T08:22:16;29.70;19.70
79760;DHT22;70512;42.122;24.732;2024-03-23T08:24:44;29.90;19.00
79760;DHT22;70512;42.122;24.732;2024-03-23T08:27:12;30.80;18.90
79760;DHT22;70512;42.122;24.732;2024-03-23T08:29:39;31.50;18.20
79760;DHT22;70512;42.122;24.732;2024-03-23T08:32:08;32.00;18.00
79760;DHT22;70512;42.122;24.732;2024-03-23T08:34:35;32.50;17.80
79760;DHT22;70512;42.122;24.732;2024-03-23T08:37:03;32.70;17.00
79760;DHT22;70512;42.122;24.732;2024-03-23T08:39:31;31.80;17.20
79760;DHT22;70512;42.122;24.732;2024-03-23T08:41:58;31.30;17.80
79760;DHT22;70512;42.122;24.732;2024-03-23T08:44:26;31.30;17.70
79760;DHT22;70512;42.122;24.732;2024-03-23T08:46:58;30.70;18.00
79760;DHT22;70512;42.122;24.732;2024-03-23T08:49:27;31.20;17.90
79760;DHT22;70512;42.122;24.732;2024-03-23T08:51:55;31.90;17.10
79760;DHT22;70512;42.122;24.732;2024-03-23T08:54:23;32.50;17.30
79760;DHT22;70512;42.122;24.732;2024-03-23T08:56:52;32.30;16.80
79760;DHT22;70512;42.122;24.732;2024-03-23T08:59:20;31.50;17.60
79760;DHT22;70512;42.122;24.732;2024-03-23T09:01:49;31.50;17.70
79760;DHT22;70512;42.122;24.732;2024-03-23T09:04:22;32.00;17.60
79760;DHT22;70512;42.122;24.732;2024-03-23T09:06:49;32.70;17.30
79760;DHT22;70512;42.122;24.732;2024-03-23T09:09:17;33.30;16.90
79760;DHT22;70512;42.122;24.732;2024-03-23T09:11:46;32.30;17.10
79760;DHT22;70512;42.122;24.732;2024-03-23T09:14:14;33.20;16.90
79760;DHT22;70512;42.122;24.732;2024-03-23T09:16:41;33.30;16.30
79760;DHT22;70512;42.122;24.732;2024-03-23T09:19:09;34.20;16.10
79760;DHT22;70512;42.122;24.732;2024-03-23T09:21:37;33.80;16.30
79760;DHT22;70512;42.122;24.732;2024-03-23T09:24:05;34.30;16.50
79760;DHT22;70512;42.122;24.732;2024-03-23T09:26:32;34.80;16.00
79760;DHT22;70512;42.122;24.732;2024-03-23T09:29:00;35.00;16.00
79760;DHT22;70512;42.122;24.732;2024-03-23T09:31:28;34.80;15.50
79760;DHT22;70512;42.122;24.732;2024-03-23T09:33:58;35.30;15.60
79760;DHT22;70512;42.122;24.732;2024-03-23T09:36:26;35.60;15.50
79760;DHT22;70512;42.122;24.732;2024-03-23T09:38:54;35.20;15.50
79760;DHT22;70512;42.122;24.732;2024-03-23T09:41:22;35.00;16.00
79760;DHT22;70512;42.122;24.732;2024-03-23T09:43:54;36.10;15.30
79760;DHT22;70512;42.122;24.732;2024-03-23T09:46:22;35.70;15.00
79760;DHT22;70512;42.122;24.732;2024-03-23T09:48:49;34.20;15.40
79760;DHT22;70512;42.122;24.732;2024-03-23T09:51:17;33.70;16.00
79760;DHT22;70512;42.122;24.732;2024-03-23T09:53:45;34.00;16.60
79760;DHT22;70512;42.122;24.732;2024-03-23T09:56:12;33.80;16.10
79760;DHT22;70512;42.122;24.732;2024-03-23T09:58:40;34.00;16.30
79760;DHT22;70512;42.122;24.732;2024-03-23T10:01:09;34.80;16.50
79760;DHT22;70512;42.122;24.732;2024-03-23T10:03:44;34.30;15.80
79760;DHT22;70512;42.122;24.732;2024-03-23T10:06:12;34.20;16.50
79760;DHT22;70512;42.122;24.732;2024-03-23T10:08:39;35.00;16.70
79760;DHT22;70512;42.122;24.732;2024-03-23T10:11:15;35.50;16.00
79760;DHT22;70512;42.122;24.732;2024-03-23T10:13:43;35.10;15.80
79760;DHT22;70512;42.122;24.732;2024-03-23T10:16:23;33.70;16.70
79760;DHT22;70512;42.122;24.732;2024-03-23T10:18:52;34.30;16.80
79760;DHT22;70512;42.122;24.732;2024-03-23T10:21:20;35.50;16.50
79760;DHT22;70512;42.122;24.732;2024-03-23T10:23:48;36.30;16.10
79760;DHT22;70512;42.122;24.732;2024-03-23T10:26:24;37.60;15.50
79760;DHT22;70512;42.122;24.732;2024-03-23T10:28:57;36.50;15.10
79760;DHT22;70512;42.122;24.732;2024-03-23T10:31:31;36.40;15.30
79760;DHT22;70512;42.122;24.732;2024-03-23T10:33:58;36.90;14.90
79760;DHT22;70512;42.122;24.732;2024-03-23T10:36:27;37.30;14.80
79760;DHT22;70512;42.122;24.732;2024-03-23T10:38:55;35.90;15.30
79760;DHT22;70512;42.122;24.732;2024-03-23T10:41:28;35.60;15.20
79760;DHT22;70512;42.122;24.732;2024-03-23T10:43:58;35.80;15.40
79760;DHT22;70512;42.122;24.732;2024-03-23T10:46:26;37.20;14.90
79760;DHT22;70512;42.122;24.732;2024-03-23T10:48:54;37.90;14.40
79760;DHT22;70512;42.122;24.732;2024-03-23T10:51:22;38.80;14.30
79760;DHT22;70512;42.122;24.732;2024-03-23T10:53:50;37.70;14.40
79760;DHT22;70512;42.122;24.732;2024-03-23T10:56:20;37.60;14.90
79760;DHT22;70512;42.122;24.732;2024-03-23T10:58:49;37.60;14.90
79760;DHT22;70512;42.122;24.732;2024-03-23T11:01:17;36.40;14.90
79760;DHT22;70512;42.122;24.732;2024-03-23T11:03:46;35.90;15.30
79760;DHT22;70512;42.122;24.732;2024-03-23T11:06:37;36.60;15.60
79760;DHT22;70512;42.122;24.732;2024-03-23T11:11:56;37.50;15.00
79760;DHT22;70512;42.122;24.732;2024-03-23T11:14:24;37.90;14.90
79760;DHT22;70512;42.122;24.732;2024-03-23T11:17:09;37.90;14.60
79760;DHT22;70512;42.122;24.732;2024-03-23T11:19:37;37.20;14.40
79760;DHT22;70512;42.122;24.732;2024-03-23T11:22:05;35.20;15.00
79760;DHT22;70512;42.122;24.732;2024-03-23T11:24:34;35.60;15.50
79760;DHT22;70512;42.122;24.732;2024-03-23T11:27:15;36.60;15.30
79760;DHT22;70512;42.122;24.732;2024-03-23T11:29:33;37.70;14.90
79760;DHT22;70512;42.122;24.732;2024-03-23T11:32:01;38.90;14.00
79760;DHT22;70512;42.122;24.732;2024-03-23T11:34:31;39.80;13.90
79760;DHT22;70512;42.122;24.732;2024-03-23T11:37:05;39.90;13.80
79760;DHT22;70512;42.122;24.732;2024-03-23T11:39:33;40.70;13.40
79760;DHT22;70512;42.122;24.732;2024-03-23T11:42:00;40.10;13.10
79760;DHT22;70512;42.122;24.732;2024-03-23T11:44:28;39.70;13.40
79760;DHT22;70512;42.122;24.732;2024-03-23T11:47:07;39.90;13.40
79760;DHT22;70512;42.122;24.732;2024-03-23T11:49:27;39.80;13.10
79760;DHT22;70512;42.122;24.732;2024-03-23T11:51:56;38.10;13.00
79760;DHT22;70512;42.122;24.732;2024-03-23T11:54:25;38.10;13.80
79760;DHT22;70512;42.122;24.732;2024-03-23T11:57:04;38.00;13.90
79760;DHT22;70512;42.122;24.732;2024-03-23T11:59:37;37.90;14.00
79760;DHT22;70512;42.122;24.732;2024-03-23T12:02:11;38.50;13.60
79760;DHT22;70512;42.122;24.732;2024-03-23T12:04:43;38.60;12.90
79760;DHT22;70512;42.122;24.732;2024-03-23T12:07:21;38.90;13.30
79760;DHT22;70512;42.122;24.732;2024-03-23T12:10:04;38.70;13.40
79760;DHT22;70512;42.122;24.732;2024-03-23T12:12:36;39.50;13.60
79760;DHT22;70512;42.122;24.732;2024-03-23T12:15:08;40.40;13.40
79760;DHT22;70512;42.122;24.732;2024-03-23T12:17:35;41.20;13.20
79760;DHT22;70512;42.122;24.732;2024-03-23T12:20:04;40.30;12.90
79760;DHT22;70512;42.122;24.732;2024-03-23T12:22:32;39.00;13.20
79760;DHT22;70512;42.122;24.732;2024-03-23T12:25:01;38.00;13.70
79760;DHT22;70512;42.122;24.732;2024-03-23T12:27:29;34.60;14.30
79760;DHT22;70512;42.122;24.732;2024-03-23T12:29:57;33.30;15.80
79760;DHT22;70512;42.122;24.732;2024-03-23T12:32:25;33.90;15.30
79760;DHT22;70512;42.122;24.732;2024-03-23T12:34:52;34.30;15.10
79760;DHT22;70512;42.122;24.732;2024-03-23T12:37:20;34.40;15.50
79760;DHT22;70512;42.122;24.732;2024-03-23T12:39:48;34.90;15.30
79760;DHT22;70512;42.122;24.732;2024-03-23T12:42:15;35.70;15.00
79760;DHT22;70512;42.122;24.732;2024-03-23T12:44:43;35.90;14.30
79760;DHT22;70512;42.122;24.732;2024-03-23T12:47:11;37.10;14.20
79760;DHT22;70512;42.122;24.732;2024-03-23T12:49:39;37.50;13.70
79760;DHT22;70512;42.122;24.732;2024-03-23T12:52:06;36.40;14.30
79760;DHT22;70512;42.122;24.732;2024-03-23T12:54:34;37.00;13.70
79760;DHT22;70512;42.122;24.732;2024-03-23T12:57:02;38.10;13.50
79760;DHT22;70512;42.122;24.732;2024-03-23T12:59:30;39.20;12.90
79760;DHT22;70512;42.122;24.732;2024-03-23T13:01:58;40.10;12.60
79760;DHT22;70512;42.122;24.732;2024-03-23T13:04:26;39.60;12.70
79760;DHT22;70512;42.122;24.732;2024-03-23T13:06:54;39.40;13.40
79760;DHT22;70512;42.122;24.732;2024-03-23T13:09:21;38.20;12.80
79760;DHT22;70512;42.122;24.732;2024-03-23T13:11:49;36.50;13.40
79760;DHT22;70512;42.122;24.732;2024-03-23T13:14:17;35.80;14.30
79760;DHT22;70512;42.122;24.732;2024-03-23T13:16:46;35.40;13.90
79760;DHT22;70512;42.122;24.732;2024-03-23T13:19:16;35.10;13.70
79760;DHT22;70512;42.122;24.732;2024-03-23T13:21:44;35.40;13.60
79760;DHT22;70512;42.122;24.732;2024-03-23T13:24:12;34.90;13.50
79760;DHT22;70512;42.122;24.732;2024-03-23T13:26:40;35.80;13.30
79760;DHT22;70512;42.122;24.732;2024-03-23T13:29:07;36.00;13.90
79760;DHT22;70512;42.122;24.732;2024-03-23T13:31:35;36.50;14.00
79760;DHT22;70512;42.122;24.732;2024-03-23T13:34:03;36.50;13.90
79760;DHT22;70512;42.122;24.732;2024-03-23T13:36:30;37.70;12.90
79760;DHT22;70512;42.122;24.732;2024-03-23T13:38:58;35.90;13.50
79760;DHT22;70512;42.122;24.732;2024-03-23T13:41:26;36.30;14.20
79760;DHT22;70512;42.122;24.732;2024-03-23T13:43:54;36.00;14.60
79760;DHT22;70512;42.122;24.732;2024-03-23T13:46:21;34.90;14.40
79760;DHT22;70512;42.122;24.732;2024-03-23T13:48:49;34.40;14.10
79760;DHT22;70512;42.122;24.732;2024-03-23T13:51:22;32.90;15.00
79760;DHT22;70512;42.122;24.732;2024-03-23T13:53:48;33.30;15.10
79760;DHT22;70512;42.122;24.732;2024-03-23T13:56:16;33.10;15.00
79760;DHT22;70512;42.122;24.732;2024-03-23T13:58:43;32.20;15.10
79760;DHT22;70512;42.122;24.732;2024-03-23T14:01:14;30.90;15.50
79760;DHT22;70512;42.122;24.732;2024-03-23T14:03:43;30.80;16.20
79760;DHT22;70512;42.122;24.732;2024-03-23T14:06:11;31.30;15.50
79760;DHT22;70512;42.122;24.732;2024-03-23T14:08:39;32.30;15.20
79760;DHT22;70512;42.122;24.732;2024-03-23T14:11:09;33.00;15.10
79760;DHT22;70512;42.122;24.732;2024-03-23T14:13:37;33.70;14.40
79760;DHT22;70512;42.122;24.732;2024-03-23T14:16:06;33.20;14.20
79760;DHT22;70512;42.122;24.732;2024-03-23T14:18:34;31.90;14.70
79760;DHT22;70512;42.122;24.732;2024-03-23T14:21:02;30.60;16.00
79760;DHT22;70512;42.122;24.732;2024-03-23T14:23:31;30.70;16.10
79760;DHT22;70512;42.122;24.732;2024-03-23T14:26:01;31.00;16.70
79760;DHT22;70512;42.122;24.732;2024-03-23T14:28:29;29.90;16.70
79760;DHT22;70512;42.122;24.732;2024-03-23T14:30:57;30.30;17.00
79760;DHT22;70512;42.122;24.732;2024-03-23T14:33:25;31.20;16.50
79760;DHT22;70512;42.122;24.732;2024-03-23T14:35:56;31.80;16.30
79760;DHT22;70512;42.122;24.732;2024-03-23T14:38:23;31.60;16.80
79760;DHT22;70512;42.122;24.732;2024-03-23T14:40:53;30.30;17.40
79760;DHT22;70512;42.122;24.732;2024-03-23T14:43:23;28.80;18.20
79760;DHT22;70512;42.122;24.732;2024-03-23T14:46:08;28.70;18.60
79760;DHT22;70512;42.122;24.732;2024-03-23T14:48:36;28.10;18.60
79760;DHT22;70512;42.122;24.732;2024-03-23T14:51:05;26.70;18.70
79760;DHT22;70512;42.122;24.732;2024-03-23T14:53:40;26.30;18.60
79760;DHT22;70512;42.122;24.732;2024-03-23T14:56:09;25.80;19.10
79760;DHT22;70512;42.122;24.732;2024-03-23T14:58:38;25.20;19.20
79760;DHT22;70512;42.122;24.732;2024-03-23T15:01:07;25.20;18.90
79760;DHT22;70512;42.122;24.732;2024-03-23T15:03:42;25.70;18.40
79760;DHT22;70512;42.122;24.732;2024-03-23T15:06:11;25.50;18.00
79760;DHT22;70512;42.122;24.732;2024-03-23T15:08:39;25.90;18.00
79760;DHT22;70512;42.122;24.732;2024-03-23T15:11:09;26.70;18.00
79760;DHT22;70512;42.122;24.732;2024-03-23T15:13:38;27.60;17.50
79760;DHT22;70512;42.122;24.732;2024-03-23T15:16:06;26.50;18.30
79760;DHT22;70512;42.122;24.732;2024-03-23T15:18:34;26.20;18.90
79760;DHT22;70512;42.122;24.732;2024-03-23T15:21:03;25.60;19.70
79760;DHT22;70512;42.122;24.732;2024-03-23T15:23:38;25.00;20.10
79760;DHT22;70512;42.122;24.732;2024-03-23T15:26:06;25.20;20.30
79760;DHT22;70512;42.122;24.732;2024-03-23T15:28:33;25.50;20.00
79760;DHT22;70512;42.122;24.732;2024-03-23T15:31:11;24.90;21.20
79760;DHT22;70512;42.122;24.732;2024-03-23T15:33:41;24.10;21.60
79760;DHT22;70512;42.122;24.732;2024-03-23T15:36:09;22.50;22.90
79760;DHT22;70512;42.122;24.732;2024-03-23T15:38:36;21.20;24.30
79760;DHT22;70512;42.122;24.732;2024-03-23T15:41:05;20.30;25.90
79760;DHT22;70512;42.122;24.732;2024-03-23T15:43:33;19.90;26.30
79760;DHT22;70512;42.122;24.732;2024-03-23T15:46:02;19.60;26.50
79760;DHT22;70512;42.122;24.732;2024-03-23T15:48:30;19.30;26.60
79760;DHT22;70512;42.122;24.732;2024-03-23T15:51:00;19.10;26.60
79760;DHT22;70512;42.122;24.732;2024-03-23T15:53:28;19.00;26.90
79760;DHT22;70512;42.122;24.732;2024-03-23T15:56:00;18.90;26.60
79760;DHT22;70512;42.122;24.732;2024-03-23T15:58:26;18.70;26.70
79760;DHT22;70512;42.122;24.732;2024-03-23T16:01:01;18.70;26.90
79760;DHT22;70512;42.122;24.732;2024-03-23T16:03:30;18.50;26.90
79760;DHT22;70512;42.122;24.732;2024-03-23T16:06:00;18.30;27.00
79760;DHT22;70512;42.122;24.732;2024-03-23T16:08:28;18.20;27.30
79760;DHT22;70512;42.122;24.732;2024-03-23T16:11:05;18.10;27.70
79760;DHT22;70512;42.122;24.732;2024-03-23T16:13:34;18.00;28.40
79760;DHT22;70512;42.122;24.732;2024-03-23T16:16:05;18.00;28.50
79760;DHT22;70512;42.122;24.732;2024-03-23T16:18:38;17.90;29.10
79760;DHT22;70512;42.122;24.732;2024-03-23T16:21:07;17.70;29.40
79760;DHT22;70512;42.122;24.732;2024-03-23T16:23:35;17.60;29.90